createdAt,value
2023-03-11T00:00:47.515Z,4.30
2023-03-11T00:03:27.064Z,5.50
2023-03-11T00:05:53.971Z,4.50
2023-03-11T00:08:22.628Z,3.30
2023-03-11T00:10:54.760Z,3.20
2023-03-11T00:13:22.139Z,2.70
2023-03-11T00:15:50.491Z,3.70
2023-03-11T00:18:17.412Z,4.90
2023-03-11T00:20:45.682Z,5.70
2023-03-11T00:23:14.107Z,5.10
2023-03-11T00:25:43.234Z,3.50
2023-03-11T00:28:10.599Z,5.30
2023-03-11T00:30:38.639Z,5.00
2023-03-11T00:33:05.309Z,3.80
2023-03-11T00:38:01.567Z,4.90
2023-03-11T00:40:30.907Z,4.80
2023-03-11T00:42:58.047Z,3.90
2023-03-11T00:45:28.175Z,2.50
2023-03-11T00:47:55.774Z,2.90
2023-03-11T00:50:27.817Z,4.70
2023-03-11T00:52:54.694Z,3.70
2023-03-11T00:55:23.915Z,2.00
2023-03-11T00:57:55.882Z,2.60
2023-03-11T01:00:23.731Z,4.40
2023-03-11T01:02:51.398Z,2.00
2023-03-11T01:05:20.732Z,3.10
2023-03-11T01:07:47.517Z,3.00
2023-03-11T01:10:14.692Z,6.40
2023-03-11T01:12:41.487Z,2.50
2023-03-11T01:15:09.157Z,4.00
2023-03-11T01:17:35.687Z,1.90
2023-03-11T01:20:05.581Z,2.80
2023-03-11T01:22:32.345Z,1.90
2023-03-11T01:24:58.814Z,2.00
2023-03-11T01:27:28.207Z,2.80
2023-03-11T01:29:54.671Z,3.10
2023-03-11T01:32:21.347Z,2.30
2023-03-11T01:37:14.260Z,2.20
2023-03-11T01:39:40.790Z,3.00
2023-03-11T01:42:07.145Z,2.50
2023-03-11T01:44:33.608Z,1.70
2023-03-11T01:47:01.656Z,1.50
2023-03-11T01:49:28.029Z,1.60
2023-03-11T01:51:57.783Z,2.50
2023-03-11T01:54:27.826Z,1.80
2023-03-11T01:56:54.697Z,2.50
2023-03-11T01:59:23.925Z,2.90
2023-03-11T02:02:29.414Z,2.80
2023-03-11T02:04:56.497Z,2.00
2023-03-11T02:07:22.862Z,1.30
2023-03-11T02:09:49.258Z,1.20
2023-03-11T02:12:15.863Z,1.30
2023-03-11T02:14:50.410Z,2.20
2023-03-11T02:17:17.117Z,1.70
2023-03-11T02:19:55.151Z,2.40
2023-03-11T02:22:22.206Z,1.00
2023-03-11T02:25:06.695Z,1.20
2023-03-11T02:27:34.099Z,1.20
2023-03-11T02:30:00.964Z,1.40
2023-03-11T02:32:27.662Z,0.70
2023-03-11T02:37:20.475Z,1.20
2023-03-11T02:39:53.969Z,1.10
2023-03-11T02:42:25.278Z,1.60
2023-03-11T02:44:58.800Z,1.30
2023-03-11T02:47:26.010Z,0.70
2023-03-11T02:49:54.472Z,1.80
2023-03-11T02:52:21.780Z,1.50
2023-03-11T02:54:48.088Z,1.50
2023-03-11T02:57:14.603Z,1.60
2023-03-11T02:59:41.009Z,1.00
2023-03-11T03:02:07.569Z,2.00
2023-03-11T03:04:34.164Z,2.20
2023-03-11T03:07:00.602Z,0.80
2023-03-11T03:09:27.074Z,1.60
2023-03-11T03:11:53.539Z,2.00
2023-03-11T03:14:20.090Z,1.10
2023-03-11T03:16:46.575Z,0.70
2023-03-11T03:19:13.039Z,1.20
2023-03-11T03:21:40.445Z,1.10
2023-03-11T03:24:07.095Z,0.70
2023-03-11T03:28:59.811Z,1.20
2023-03-11T03:31:26.334Z,1.10
2023-03-11T03:33:52.961Z,0.60
2023-03-11T03:36:19.424Z,1.30
2023-03-11T03:38:45.896Z,1.70
2023-03-11T03:41:15.482Z,1.00
2023-03-11T03:43:41.940Z,1.50
2023-03-11T03:46:08.441Z,2.20
2023-03-11T03:48:35.244Z,2.00
2023-03-11T03:51:06.731Z,0.70
2023-03-11T03:53:34.425Z,1.40
2023-03-11T03:56:05.663Z,0.90
2023-03-11T03:58:32.245Z,0.90
2023-03-11T04:00:59.696Z,0.90
2023-03-11T04:03:27.054Z,1.60
2023-03-11T04:05:53.701Z,1.10
2023-03-11T04:08:20.727Z,0.60
2023-03-11T04:10:56.539Z,0.60
2023-03-11T04:13:23.363Z,0.80
2023-03-11T04:15:49.823Z,1.40
2023-03-11T04:18:16.477Z,0.70
2023-03-11T04:20:43.191Z,0.90
2023-03-11T04:23:09.802Z,0.70
2023-03-11T04:25:36.109Z,1.90
2023-03-11T04:28:02.478Z,0.60
2023-03-11T04:30:28.902Z,2.30
2023-03-11T04:32:55.316Z,1.50
2023-03-11T04:35:21.979Z,1.00
2023-03-11T04:37:48.568Z,2.30
2023-03-11T04:40:15.210Z,1.10
2023-03-11T04:42:41.884Z,1.10
2023-03-11T04:45:10.492Z,1.20
2023-03-11T04:47:36.975Z,1.00
2023-03-11T04:50:04.078Z,1.30
2023-03-11T04:52:30.610Z,1.90
2023-03-11T04:54:56.950Z,1.10
2023-03-11T04:57:26.299Z,1.90
2023-03-11T04:59:52.630Z,1.20
2023-03-11T05:02:19.087Z,2.00
2023-03-11T05:04:45.927Z,1.40
2023-03-11T05:07:12.425Z,1.40
2023-03-11T05:09:38.924Z,1.70
2023-03-11T05:12:05.889Z,2.50
2023-03-11T05:16:58.743Z,1.40
2023-03-11T05:19:31.676Z,1.90
2023-03-11T05:24:27.487Z,1.90
2023-03-11T05:26:54.644Z,1.50
2023-03-11T05:29:21.555Z,2.10
2023-03-11T05:31:48.243Z,3.70
2023-03-11T05:34:15.671Z,2.10
2023-03-11T05:36:42.571Z,1.80
2023-03-11T05:41:35.846Z,3.50
2023-03-11T05:46:29.170Z,2.00
2023-03-11T05:48:55.800Z,3.00
2023-03-11T05:51:22.304Z,3.70
2023-03-11T05:53:48.873Z,3.70
2023-03-11T05:56:15.670Z,2.10
2023-03-11T05:58:42.164Z,2.70
2023-03-11T06:01:10.348Z,3.20
2023-03-11T06:03:38.150Z,3.00
2023-03-11T06:06:07.031Z,3.00
2023-03-11T06:08:36.406Z,3.00
2023-03-11T06:11:08.133Z,3.30
2023-03-11T06:13:36.107Z,2.50
2023-03-11T06:16:03.552Z,3.20
2023-03-11T06:18:30.130Z,3.00
2023-03-11T06:21:01.339Z,3.20
2023-03-11T06:23:29.146Z,3.00
2023-03-11T06:26:00.157Z,4.20
2023-03-11T06:28:27.823Z,3.20
2023-03-11T06:30:56.092Z,4.80
2023-03-11T06:33:23.459Z,3.00
2023-03-11T06:36:00.753Z,3.30
2023-03-11T06:38:27.665Z,3.40
2023-03-11T06:40:54.108Z,3.40
2023-03-11T06:43:21.582Z,3.20
2023-03-11T06:45:48.212Z,2.60
2023-03-11T06:48:14.736Z,3.60
2023-03-11T06:50:41.197Z,3.90
2023-03-11T06:53:07.883Z,4.10
2023-03-11T06:55:35.161Z,4.00
2023-03-11T06:58:01.824Z,2.90
2023-03-11T07:00:30.444Z,4.20
2023-03-11T07:02:57.353Z,2.90
2023-03-11T07:05:24.003Z,3.70
2023-03-11T07:07:53.481Z,3.10
2023-03-11T07:10:20.269Z,3.60
2023-03-11T07:12:46.860Z,3.20
2023-03-11T07:15:13.491Z,3.90
2023-03-11T07:17:41.716Z,4.70
2023-03-11T07:20:09.034Z,4.10
2023-03-11T07:22:35.345Z,3.40
2023-03-11T07:25:01.676Z,4.10
2023-03-11T07:27:28.462Z,4.30
2023-03-11T07:29:55.261Z,5.80
2023-03-11T07:32:21.644Z,3.80
2023-03-11T07:34:48.520Z,4.70
2023-03-11T07:39:42.145Z,4.60
2023-03-11T07:42:08.623Z,4.10
2023-03-11T07:44:35.403Z,5.40
2023-03-11T07:47:03.661Z,4.80
2023-03-11T07:49:30.308Z,5.30
2023-03-11T07:51:56.800Z,5.50
2023-03-11T07:54:23.605Z,4.60
2023-03-11T07:56:50.101Z,5.30
2023-03-11T07:59:16.628Z,5.00
2023-03-11T08:01:46.472Z,5.00
2023-03-11T08:04:16.294Z,6.70
2023-03-11T08:06:44.852Z,5.70
2023-03-11T08:09:11.646Z,6.10
2023-03-11T08:11:38.408Z,6.30
2023-03-11T08:14:05.634Z,4.90
2023-03-11T08:16:32.358Z,4.60
2023-03-11T08:18:59.877Z,5.60
2023-03-11T08:21:29.464Z,4.30
2023-03-11T08:24:00.140Z,4.50
2023-03-11T08:26:27.255Z,6.50
2023-03-11T08:28:54.441Z,4.90
2023-03-11T08:31:25.987Z,6.40
2023-03-11T08:33:55.497Z,5.20
2023-03-11T08:36:22.352Z,5.40
2023-03-11T08:38:49.171Z,4.70
2023-03-11T08:41:15.821Z,5.10
2023-03-11T08:46:17.696Z,5.80
2023-03-11T08:48:44.093Z,3.80
2023-03-11T08:51:12.354Z,5.70
2023-03-11T08:53:39.333Z,6.30
2023-03-11T08:58:32.419Z,5.40
2023-03-11T09:00:58.964Z,4.40
2023-03-11T09:03:25.525Z,5.10
2023-03-11T09:05:59.100Z,5.50
2023-03-11T09:08:26.087Z,3.10
2023-03-11T09:10:52.516Z,5.10
2023-03-11T09:13:19.182Z,5.70
2023-03-11T09:15:45.756Z,5.00
2023-03-11T09:18:13.372Z,5.00
2023-03-11T09:20:40.875Z,6.40
2023-03-11T09:23:08.507Z,4.70
2023-03-11T09:25:35.082Z,3.10
2023-03-11T09:28:01.931Z,4.40
2023-03-11T09:30:28.415Z,3.50
2023-03-11T09:32:55.574Z,7.80
2023-03-11T09:37:48.813Z,5.10
2023-03-11T09:40:20.693Z,4.20
2023-03-11T09:43:03.261Z,3.90
2023-03-11T09:45:31.754Z,3.90
2023-03-11T09:48:26.490Z,3.40
2023-03-11T09:50:58.237Z,2.80
2023-03-11T09:53:33.829Z,3.70
2023-03-11T09:56:04.307Z,2.80
2023-03-11T09:58:41.656Z,3.20
2023-03-11T10:01:16.281Z,4.90
2023-03-11T10:03:43.359Z,4.60
2023-03-11T10:06:17.087Z,5.60
2023-03-11T10:08:48.868Z,6.80
2023-03-11T10:11:30.609Z,4.20
2023-03-11T10:14:06.882Z,4.30
2023-03-11T10:16:55.377Z,6.90
2023-03-11T10:19:37.036Z,7.40
2023-03-11T10:22:23.954Z,7.30
2023-03-11T10:25:25.239Z,5.50
2023-03-11T10:27:55.377Z,6.40
2023-03-11T10:30:25.997Z,5.80
2023-03-11T10:33:19.896Z,6.90
2023-03-11T10:35:51.809Z,6.50
2023-03-11T10:38:21.705Z,4.10
2023-03-11T10:40:51.499Z,7.80
2023-03-11T10:43:23.000Z,3.90
2023-03-11T10:45:50.590Z,5.20
2023-03-11T10:48:18.891Z,8.40
2023-03-11T10:51:02.967Z,5.20
2023-03-11T10:53:30.695Z,5.80
2023-03-11T10:55:58.663Z,4.90
2023-03-11T10:58:30.382Z,5.50
2023-03-11T11:01:01.261Z,4.80
2023-03-11T11:03:28.337Z,5.60
2023-03-11T11:06:01.396Z,7.30
2023-03-11T11:08:28.580Z,7.10
2023-03-11T11:10:57.439Z,5.30
2023-03-11T11:13:30.526Z,5.50
2023-03-11T11:16:00.993Z,7.80
2023-03-11T11:18:44.191Z,6.80
2023-03-11T11:21:14.861Z,7.90
2023-03-11T11:23:41.605Z,6.10
2023-03-11T11:26:20.509Z,6.10
2023-03-11T11:29:14.856Z,4.40
2023-03-11T11:31:44.171Z,6.70
2023-03-11T11:34:29.575Z,6.60
2023-03-11T11:36:56.732Z,5.80
2023-03-11T11:39:26.390Z,5.20
2023-03-11T11:41:55.905Z,6.00
2023-03-11T11:44:29.883Z,4.40
2023-03-11T11:46:59.282Z,4.90
2023-03-11T11:49:28.817Z,5.60
2023-03-11T11:52:14.291Z,8.00
2023-03-11T11:54:46.566Z,6.00
2023-03-11T11:57:15.677Z,6.80
2023-03-11T11:59:43.078Z,6.10
2023-03-11T12:02:15.787Z,4.10
2023-03-11T12:05:05.888Z,6.00
2023-03-11T12:07:47.411Z,4.50
2023-03-11T12:10:36.735Z,5.20
2023-03-11T12:13:43.542Z,4.50
2023-03-11T12:16:19.072Z,4.30
2023-03-11T12:19:16.637Z,6.30
2023-03-11T12:21:43.284Z,5.80
2023-03-11T12:24:12.805Z,5.70
2023-03-11T12:26:41.755Z,6.60
2023-03-11T12:29:19.839Z,5.60
2023-03-11T12:31:47.080Z,3.20
2023-03-11T12:34:17.353Z,3.50
2023-03-11T12:36:45.169Z,4.60
2023-03-11T12:39:23.210Z,5.10
2023-03-11T12:42:15.917Z,3.90
2023-03-11T12:44:42.884Z,3.50
2023-03-11T12:47:17.510Z,5.20
2023-03-11T12:49:46.069Z,4.80
2023-03-11T12:52:15.581Z,5.30
2023-03-11T12:55:02.673Z,4.10
2023-03-11T12:57:50.672Z,5.00
2023-03-11T13:00:29.790Z,4.60
2023-03-11T13:03:08.980Z,6.40
2023-03-11T13:05:48.504Z,6.00
2023-03-11T13:08:23.823Z,4.50
2023-03-11T13:10:52.019Z,3.90
2023-03-11T13:13:30.721Z,6.20
2023-03-11T13:15:58.378Z,5.50
2023-03-11T13:18:29.790Z,4.00
2023-03-11T13:21:00.728Z,5.00
2023-03-11T13:23:36.350Z,6.40
2023-03-11T13:26:09.131Z,6.50
2023-03-11T13:28:51.475Z,4.60
2023-03-11T13:31:37.676Z,4.30
2023-03-11T13:34:55.037Z,6.00
2023-03-11T13:37:30.829Z,6.10
2023-03-11T13:40:13.627Z,4.70
2023-03-11T13:42:50.532Z,7.90
2023-03-11T13:45:33.794Z,4.70
2023-03-11T13:48:26.518Z,6.90
2023-03-11T13:51:30.748Z,5.00
2023-03-11T13:54:02.044Z,3.70
2023-03-11T13:56:31.256Z,7.10
2023-03-11T13:59:17.651Z,6.40
2023-03-11T14:01:51.695Z,4.50
2023-03-11T14:04:27.044Z,3.60
2023-03-11T14:06:53.779Z,4.00
2023-03-11T14:09:23.088Z,6.10
2023-03-11T14:11:51.810Z,4.50
2023-03-11T14:14:40.456Z,4.90
2023-03-11T14:17:13.161Z,6.70
2023-03-11T14:19:39.723Z,5.10
2023-03-11T14:22:08.023Z,4.20
2023-03-11T14:24:35.360Z,4.30
2023-03-11T14:27:05.963Z,4.90
2023-03-11T14:29:34.099Z,6.20
2023-03-11T14:32:27.174Z,4.70
2023-03-11T14:34:54.714Z,7.30
2023-03-11T14:37:39.454Z,3.90
2023-03-11T14:40:38.491Z,4.10
2023-03-11T14:43:06.996Z,5.30
2023-03-11T14:45:36.874Z,6.40
2023-03-11T14:48:14.697Z,6.00
2023-03-11T14:50:43.713Z,5.20
2023-03-11T14:53:23.589Z,4.70
2023-03-11T14:55:55.236Z,3.40
2023-03-11T14:58:30.786Z,5.40
2023-03-11T15:01:03.389Z,4.70
2023-03-11T15:03:33.712Z,7.10
2023-03-11T15:06:07.108Z,4.00
2023-03-11T15:08:38.037Z,4.40
2023-03-11T15:11:19.075Z,3.80
2023-03-11T15:13:50.353Z,3.20
2023-03-11T15:16:34.740Z,3.80
2023-03-11T15:19:22.010Z,5.40
2023-03-11T15:21:53.628Z,4.60
2023-03-11T15:24:27.783Z,3.80
2023-03-11T15:26:57.688Z,4.90
2023-03-11T15:29:25.142Z,4.90
2023-03-11T15:31:51.552Z,6.50
2023-03-11T15:34:18.066Z,6.20
2023-03-11T15:36:44.543Z,5.10
2023-03-11T15:39:11.016Z,5.10
2023-03-11T15:41:37.683Z,5.80
2023-03-11T15:44:06.857Z,4.70
2023-03-11T15:46:34.071Z,3.20
2023-03-11T15:49:00.561Z,5.00
2023-03-11T15:51:27.053Z,5.90
2023-03-11T15:53:53.844Z,3.80
2023-03-11T15:58:50.459Z,4.60
2023-03-11T16:01:17.850Z,6.20
2023-03-11T16:03:44.290Z,4.50
2023-03-11T16:06:10.708Z,5.50
2023-03-11T16:08:37.082Z,5.80
2023-03-11T16:11:03.728Z,5.60
2023-03-11T16:13:30.154Z,4.80
2023-03-11T16:15:56.748Z,4.40
2023-03-11T16:18:23.657Z,5.50
2023-03-11T16:20:51.877Z,6.00
2023-03-11T16:23:26.066Z,4.00
2023-03-11T16:25:58.758Z,4.30
2023-03-11T16:28:25.354Z,5.30
2023-03-11T16:30:52.208Z,8.20
2023-03-11T16:33:18.781Z,6.70
2023-03-11T16:35:45.824Z,6.10
2023-03-11T16:38:12.721Z,5.50
2023-03-11T16:40:39.722Z,7.90
2023-03-11T16:45:33.828Z,5.70
2023-03-11T16:48:00.660Z,6.60
2023-03-11T16:50:27.416Z,6.70
2023-03-11T16:52:55.098Z,6.90
2023-03-11T16:55:22.421Z,6.90
2023-03-11T16:57:48.989Z,4.50
2023-03-11T17:00:18.972Z,7.40
2023-03-11T17:02:45.951Z,6.90
2023-03-11T17:07:39.918Z,5.10
2023-03-11T17:10:09.825Z,5.70
2023-03-11T17:12:36.480Z,3.90
2023-03-11T17:15:05.725Z,7.20
2023-03-11T17:17:32.358Z,7.10
2023-03-11T17:19:58.808Z,5.80
2023-03-11T17:22:25.662Z,5.60
2023-03-11T17:24:52.176Z,6.20
2023-03-11T17:27:18.812Z,4.70
2023-03-11T17:29:45.298Z,7.00
2023-03-11T17:32:17.107Z,5.00
2023-03-11T17:34:44.255Z,6.70
2023-03-11T17:37:10.803Z,5.80
2023-03-11T17:39:37.338Z,6.60
2023-03-11T17:42:04.158Z,9.20
2023-03-11T17:44:44.551Z,6.20
2023-03-11T17:47:19.014Z,6.70
2023-03-11T17:49:45.670Z,8.30
2023-03-11T17:52:12.405Z,6.30
2023-03-11T17:54:39.067Z,9.20
2023-03-11T17:57:05.685Z,5.50
2023-03-11T17:59:32.265Z,4.30
2023-03-11T18:01:58.750Z,6.00
2023-03-11T18:04:25.656Z,6.30
2023-03-11T18:06:53.759Z,5.60
2023-03-11T18:09:20.703Z,7.60
2023-03-11T18:11:47.228Z,9.40
2023-03-11T18:14:13.784Z,9.80
2023-03-11T18:16:40.567Z,6.80
2023-03-11T18:19:07.217Z,5.40
2023-03-11T18:21:33.652Z,6.90
2023-03-11T18:24:00.637Z,7.90
2023-03-11T18:26:30.346Z,6.10
2023-03-11T18:28:58.533Z,7.30
2023-03-11T18:31:26.253Z,8.60
2023-03-11T18:37:58.969Z,23.20
2023-03-11T18:41:45.302Z,13.20
2023-03-11T18:45:01.264Z,19.10
2023-03-11T18:47:28.521Z,19.50
2023-03-11T18:50:19.740Z,14.30
2023-03-11T18:52:46.981Z,9.20
2023-03-11T18:55:13.620Z,9.70
2023-03-11T18:57:42.407Z,12.00
2023-03-11T19:00:09.606Z,13.80
2023-03-11T19:02:36.278Z,12.30
2023-03-11T19:05:03.656Z,11.60
2023-03-11T19:07:30.123Z,12.30
2023-03-11T19:09:56.704Z,18.40
2023-03-11T19:12:23.217Z,13.40
2023-03-11T19:14:50.108Z,17.60
2023-03-11T19:19:44.557Z,17.00
2023-03-11T19:22:11.204Z,13.50
2023-03-11T19:24:37.796Z,16.10
2023-03-11T19:27:04.343Z,14.40
2023-03-11T19:29:37.008Z,12.30
2023-03-11T19:32:04.299Z,12.20
2023-03-11T19:37:32.248Z,15.20
2023-03-11T19:40:04.733Z,22.30
2023-03-11T19:42:35.602Z,20.60
2023-03-11T19:45:29.798Z,23.00
2023-03-11T19:47:56.636Z,14.60
2023-03-11T19:50:23.280Z,12.10
2023-03-11T19:52:49.964Z,12.60
2023-03-11T19:55:16.503Z,11.50
2023-03-11T19:57:43.302Z,11.60
2023-03-11T20:00:11.948Z,8.70
2023-03-11T20:02:39.955Z,10.30
2023-03-11T20:05:07.817Z,13.60
2023-03-11T20:07:34.415Z,8.90
2023-03-11T20:10:00.851Z,11.70
2023-03-11T20:12:27.545Z,13.00
2023-03-11T20:14:54.026Z,10.20
2023-03-11T20:17:20.596Z,12.30
2023-03-11T20:19:47.280Z,13.60
2023-03-11T20:22:13.873Z,11.70
2023-03-11T20:24:40.722Z,13.20
2023-03-11T20:29:34.013Z,12.70
2023-03-11T20:32:00.595Z,10.90
2023-03-11T20:34:27.354Z,10.70
2023-03-11T20:36:54.034Z,10.50
2023-03-11T20:39:20.822Z,10.70
2023-03-11T20:41:47.648Z,8.90
2023-03-11T20:44:14.434Z,13.60
2023-03-11T20:46:41.804Z,11.50
2023-03-11T20:49:08.438Z,11.50
2023-03-11T20:51:41.022Z,11.00
2023-03-11T20:54:08.148Z,12.60
2023-03-11T20:56:34.854Z,10.30
2023-03-11T20:59:01.501Z,11.00
2023-03-11T21:01:30.030Z,14.30
2023-03-11T21:04:00.027Z,11.90
2023-03-11T21:06:29.871Z,11.40
2023-03-11T21:08:58.449Z,12.80
2023-03-11T21:11:26.198Z,13.20
2023-03-11T21:13:54.013Z,9.50
2023-03-11T21:16:21.449Z,11.40
2023-03-11T21:18:49.575Z,12.80
2023-03-11T21:21:17.740Z,13.00
2023-03-11T21:23:44.700Z,12.20
2023-03-11T21:26:13.357Z,14.00
2023-03-11T21:28:41.463Z,12.70
2023-03-11T21:31:10.559Z,12.20
2023-03-11T21:33:38.620Z,11.10
2023-03-11T21:36:06.744Z,11.20
2023-03-11T22:16:06.299Z,15.60
2023-03-11T22:18:33.032Z,16.60
2023-03-11T22:21:00.234Z,19.50
2023-03-11T22:23:27.361Z,16.60
2023-03-11T22:25:53.947Z,16.50
2023-03-11T22:28:20.668Z,21.40
2023-03-11T22:30:47.389Z,18.60
2023-03-11T22:50:12.004Z,16.60
2023-03-11T22:52:38.436Z,17.20
2023-03-11T22:55:05.393Z,13.00
2023-03-11T23:00:18.681Z,16.70
2023-03-11T23:02:46.744Z,18.00
2023-03-11T23:05:14.508Z,17.20
2023-03-11T23:07:41.508Z,19.00
2023-03-11T23:12:36.172Z,20.10
2023-03-11T23:15:10.245Z,16.60
2023-03-11T23:17:36.757Z,19.40
2023-03-11T23:20:05.141Z,19.80
2023-03-11T23:22:35.346Z,20.90
2023-03-11T23:25:03.353Z,19.50
2023-03-11T23:27:29.660Z,16.90
2023-03-11T23:29:56.262Z,16.80
2023-03-11T23:32:23.078Z,17.20
2023-03-11T23:34:49.471Z,15.50
2023-03-11T23:37:16.192Z,16.60
2023-03-11T23:39:42.705Z,16.70
2023-03-11T23:44:41.254Z,15.60
2023-03-11T23:47:07.902Z,17.70
2023-03-11T23:49:34.298Z,14.20
2023-03-11T23:52:00.940Z,19.90
2023-03-11T23:54:27.484Z,13.70
2023-03-11T23:56:53.880Z,15.00
2023-03-11T23:59:20.423Z,13.80
